DW9152 Jackson Heights NY US current weather conditions

sailwx.info

Wind from 260 at 0 knots gusting 6

Air temperature 5.0° C
Dewpoint -6.2° C

Last reported at 2019-Nov-15 07:06 UTC.
Time now 2019-Nov-15 07:39 UTC

Location: N 40°45' W 073°53'.
View on Google Maps.

See reports from other nearby stations

  
Tides and Currents Weather Stations Pressure Air Temp Water Temp Dewpoint Dewpoint Depression Visibility Wind Speed Wind Dir Waves Ship Positions
date/time (UTC)wind fromknots sea level pressurealtimeterstation pressurevisibilityair tempwater tempwave heightnotes
2019-Nov-15 07:06 260 0 gusting 6 5.0
2019-Nov-15 07:01 246 5.0
2019-Nov-15 06:56 278 5.0
2019-Nov-15 06:51 254 1 gusting 6 5.0
2019-Nov-15 06:46 259 2 gusting 8 5.0
2019-Nov-15 06:41 264 2 gusting 9 5.0
2019-Nov-15 06:36 239 0 gusting 9 5.0
2019-Nov-15 06:31 244 0 gusting 6 5.0
2019-Nov-15 06:26 229 2 gusting 7 5.0
2019-Nov-15 06:21 282 1 gusting 7 5.0
2019-Nov-15 06:16 252 1 gusting 8 5.0
2019-Nov-15 06:11 253 0 gusting 8 5.0
2019-Nov-15 06:06 273 0 gusting 6 5.6
2019-Nov-15 06:01 264 1 gusting 11 5.6
2019-Nov-15 05:56 291 3 gusting 11 5.6
2019-Nov-15 05:51 292 5 gusting 13 5.6
2019-Nov-15 05:46 233 4 gusting 13 5.6
2019-Nov-15 05:41 275 2 gusting 11 5.6
2019-Nov-15 05:36 277 4 gusting 12 5.6
2019-Nov-15 05:31 261 4 gusting 12 5.6
2019-Nov-15 05:26 255 3 gusting 11 5.6
2019-Nov-15 05:21 282 3 gusting 11 5.6
2019-Nov-15 05:16 246 1 gusting 7 5.6
2019-Nov-15 05:11 282 3 gusting 12 5.6
2019-Nov-15 05:06 279 2 gusting 12 5.6
2019-Nov-15 05:01 287 0 gusting 4 5.6
2019-Nov-15 04:56 273 5.6
2019-Nov-15 04:51 251 0 gusting 7 5.6
2019-Nov-15 04:46 262 1 gusting 8 5.6
2019-Nov-15 04:41 257 0 gusting 8 5.6
2019-Nov-15 04:35 216 5.6
2019-Nov-15 04:30 248 0 gusting 6 6.1
2019-Nov-15 04:25 292 0 gusting 6 6.1
2019-Nov-15 04:20 252 0 gusting 8 6.1
2019-Nov-15 04:15 231 0 gusting 8 6.1
2019-Nov-15 04:10 235 0 gusting 7 5.6
2019-Nov-15 04:05 222 2 gusting 8 5.6
2019-Nov-15 04:00 264 6 gusting 12 5.6
2019-Nov-15 03:55 284 5 gusting 12 5.6
2019-Nov-15 03:50 244 4 gusting 11 6.1
2019-Nov-15 03:45 202 2 gusting 10 6.1
2019-Nov-15 03:40 303 6.1
2019-Nov-15 03:35 225 0 gusting 7 6.1
2019-Nov-15 03:30 256 1 gusting 7 6.1
2019-Nov-15 03:25 257 1 gusting 7 6.1
2019-Nov-15 03:20 286 1 gusting 9 6.1
2019-Nov-15 03:15 265 2 gusting 9 6.1
2019-Nov-15 03:10 273 4 gusting 13 6.1
2019-Nov-15 03:05 247 6 gusting 13 6.1
2019-Nov-15 03:00 225 6 gusting 13 6.1
2019-Nov-15 02:55 233 6 gusting 13 6.1
2019-Nov-15 02:50 232 7 gusting 14 6.1
2019-Nov-15 02:45 243 6 gusting 14 6.1
2019-Nov-15 02:40 246 6 gusting 13 6.1
2019-Nov-15 02:35 254 6 gusting 13 6.1
2019-Nov-15 02:30 233 7 gusting 16 6.1
2019-Nov-15 02:25 255 8 gusting 16 6.1
2019-Nov-15 02:20 242 8 gusting 19 6.1
2019-Nov-15 02:15 252 7 gusting 19 6.7
2019-Nov-15 02:10 264 6 gusting 13 6.7
2019-Nov-15 02:05 231 4 gusting 13 6.7
2019-Nov-15 02:00 246 1 gusting 13 6.7
2019-Nov-15 01:55 233 1 gusting 7 6.7
2019-Nov-15 01:50 252 2 gusting 10 6.7
2019-Nov-15 01:45 200 5 gusting 13 6.7
2019-Nov-15 01:40 236 6 gusting 13 6.7
2019-Nov-15 01:35 246 7 gusting 13 6.7
2019-Nov-15 01:30 254 5 gusting 12 6.7
2019-Nov-15 01:25 252 2 gusting 11 6.7
2019-Nov-15 01:20 240 3 gusting 11 6.7
2019-Nov-15 01:15 238 5 gusting 12 6.7
2019-Nov-15 01:10 207 4 gusting 14 6.7
2019-Nov-15 01:05 225 2 gusting 14 7.2
2019-Nov-15 01:00 207 4 gusting 12 6.7
2019-Nov-15 00:55 206 5 gusting 14 6.7
2019-Nov-15 00:50 248 6 gusting 14 6.7
2019-Nov-15 00:45 236 6 gusting 13 6.7
2019-Nov-15 00:40 262 4 gusting 12 6.7
2019-Nov-15 00:35 251 4 gusting 12 7.2
2019-Nov-15 00:30 227 6 gusting 13 7.2
2019-Nov-15 00:25 248 6 gusting 13 6.7
2019-Nov-15 00:20 227 6 gusting 13 7.2
2019-Nov-15 00:15 213 5 gusting 11 7.2
2019-Nov-15 00:10 233 3 gusting 10 7.2
2019-Nov-15 00:05 236 5 gusting 10 7.2
2019-Nov-15 00:00 230 6 gusting 13 7.2
2019-Nov-14 23:55 216 6 gusting 13 7.2
2019-Nov-14 23:50 242 4 gusting 11 7.2
2019-Nov-14 23:45 229 4 gusting 12 7.2
2019-Nov-14 23:39 227 5 gusting 13 7.2
2019-Nov-14 23:34 247 3 gusting 13 7.2
2019-Nov-14 23:30 248 1 gusting 11 7.2
2019-Nov-14 23:24 255 2 gusting 11 7.2
2019-Nov-14 23:19 254 5 gusting 13 7.2
2019-Nov-14 23:14 249 6 gusting 13 7.2
2019-Nov-14 23:09 243 3 gusting 10 7.2
2019-Nov-14 23:04 236 1 gusting 7 7.2
2019-Nov-14 22:59 234 0 gusting 7 7.2
2019-Nov-14 22:54 243 0 gusting 6 7.2
2019-Nov-14 22:49 250 1 gusting 8 7.2
2019-Nov-14 22:44 237 2 gusting 10 7.2
2019-Nov-14 22:39 239 1 gusting 10 7.2
2019-Nov-14 22:34 205 1 gusting 8 7.2
2019-Nov-14 22:29 247 1 gusting 8 7.2
2019-Nov-14 22:24 244 2 gusting 9 7.2
2019-Nov-14 22:19 243 4 gusting 10 7.2
2019-Nov-14 22:14 227 3 gusting 10 7.2
2019-Nov-14 22:09 231 0 gusting 10 7.2
2019-Nov-14 22:04 225 2 gusting 8 7.2
2019-Nov-14 21:59 255 2 gusting 8 7.2
2019-Nov-14 21:54 216 2 gusting 8 7.2
2019-Nov-14 21:49 232 4 gusting 9 7.2
2019-Nov-14 21:44 210 4 gusting 11 7.2
2019-Nov-14 21:39 225 3 gusting 11 7.2
2019-Nov-14 21:34 230 3 gusting 10 7.2
2019-Nov-14 21:29 226 2 gusting 10 7.2
2019-Nov-14 21:24 246 1 gusting 10 7.2
2019-Nov-14 21:19 222 0 gusting 6 7.2
2019-Nov-14 21:14 227 0 gusting 6 7.2
2019-Nov-14 21:09 218 0 gusting 6 7.2
2019-Nov-14 21:04 233 1 gusting 6 7.2
2019-Nov-14 20:59 215 1 gusting 6 7.2
2019-Nov-14 20:54 209 2 gusting 7 7.2
2019-Nov-14 20:49 211 2 gusting 7 7.2
2019-Nov-14 20:44 239 4 gusting 10 7.2
2019-Nov-14 20:39 204 3 gusting 10 7.2
2019-Nov-14 20:34 210 0 gusting 7 7.2
2019-Nov-14 20:29 218 0 gusting 5 7.2
2019-Nov-14 20:24 198 0 gusting 6 7.2
2019-Nov-14 20:19 191 1 gusting 8 7.2
2019-Nov-14 20:14 196 2 gusting 8 7.2
2019-Nov-14 20:09 177 1 gusting 7 7.2
2019-Nov-14 20:04 202 0 gusting 9 7.2
2019-Nov-14 19:59 207 0 gusting 9 6.7
2019-Nov-14 19:53 191 1 gusting 6 6.7
2019-Nov-14 19:48 203 2 gusting 8 6.7
2019-Nov-14 19:43 190 2 gusting 8 6.7
2019-Nov-14 19:38 207 1 gusting 7 6.7
2019-Nov-14 19:33 182 3 gusting 10 6.7
2019-Nov-14 19:28 175 2 gusting 10 6.1
2019-Nov-14 19:23 185 3 gusting 12 6.1
2019-Nov-14 19:18 158 6 gusting 12 6.1
2019-Nov-14 19:13 195 5 gusting 15 6.7
2019-Nov-14 19:08 214 6 gusting 15 6.1
2019-Nov-14 19:03 192 6 gusting 13 6.1
2019-Nov-14 18:58 196 6 gusting 13 6.1
2019-Nov-14 18:53 208 4 gusting 12 6.7
2019-Nov-14 18:48 232 3 gusting 12 6.7
2019-Nov-14 18:43 219 6 gusting 13 6.1
2019-Nov-14 18:38 262 8 gusting 13 6.1
2019-Nov-14 18:33 254 8 gusting 14 6.1
2019-Nov-14 18:28 218 6 gusting 14 6.7
2019-Nov-14 18:23 196 6 gusting 13 6.1
2019-Nov-14 18:18 164 6 gusting 13 5.6
2019-Nov-14 18:13 237 6 gusting 13 6.1
2019-Nov-14 18:08 223 6 gusting 13 6.1
2019-Nov-14 18:03 275 5 gusting 13 6.1
2019-Nov-14 17:58 262 6 gusting 12 6.1
2019-Nov-14 17:53 214 6 gusting 13 5.6
2019-Nov-14 17:48 215 7 gusting 13 5.6
2019-Nov-14 17:43 244 5 gusting 13 5.6
2019-Nov-14 17:38 265 5 gusting 12 6.1
2019-Nov-14 17:33 245 7 gusting 13 5.6
2019-Nov-14 17:28 221 7 gusting 13 5.6
2019-Nov-14 17:23 195 7 gusting 14 5.6
2019-Nov-14 17:18 198 8 gusting 15 5.6
2019-Nov-14 17:13 229 6 gusting 15 5.6
2019-Nov-14 17:08 218 6 gusting 13 5.6
2019-Nov-14 17:03 231 8 gusting 13 5.0
2019-Nov-14 16:58 243 6 gusting 13 5.0
2019-Nov-14 16:53 223 4 gusting 13 5.6
2019-Nov-14 16:47 209 4 gusting 13 5.0
2019-Nov-14 16:43 223 3 gusting 11 5.0
2019-Nov-14 16:38 230 3 gusting 9 4.4
2019-Nov-14 16:32 256 4 gusting 12 4.4
2019-Nov-14 16:27 241 6 gusting 12 4.4
2019-Nov-14 16:23 197 6 gusting 12 4.4
2019-Nov-14 16:17 216 4 gusting 12 4.4
2019-Nov-14 16:12 218 1 gusting 8 4.4
2019-Nov-14 16:07 190 4.4
2019-Nov-14 16:02 216 4.4
2019-Nov-14 15:57 235 4.4
2019-Nov-14 15:52 232 3.9
2019-Nov-14 15:47 235 4.4
2019-Nov-14 15:42 238 3.9
2019-Nov-14 15:36 247 3.9
2019-Nov-14 15:32 248 3.9
2019-Nov-14 15:26 238 3.9
2019-Nov-14 15:16 237 3.9
2019-Nov-14 15:12 238 3.9
2019-Nov-14 15:07 233 3.9
2019-Nov-14 15:01 235 3.3
2019-Nov-14 14:56 230 3.3
2019-Nov-14 14:51 235 3.3
2019-Nov-14 14:46 234 3.3
2019-Nov-14 14:41 232 3.3
2019-Nov-14 14:36 233 3.3
2019-Nov-14 14:31 220 2.8
2019-Nov-14 14:26 225 2.8
2019-Nov-14 14:21 225 2.8
2019-Nov-14 14:15 233 2.8
2019-Nov-14 14:10 238 2.8
2019-Nov-14 14:05 225 2.8
2019-Nov-14 14:00 227 2.2
2019-Nov-14 13:55 190 2.2
2019-Nov-14 13:50 125 1.7
2019-Nov-14 13:45 125 1.1
2019-Nov-14 13:35 125 1.1
2019-Nov-14 13:30 125 0.6
2019-Nov-14 13:25 125 0.6
2019-Nov-14 13:20 125 0.6
2019-Nov-14 13:14 125 0.6
2019-Nov-14 13:09 125 0.6
2019-Nov-14 13:04 125 0.6
2019-Nov-14 12:59 125 0.6
2019-Nov-14 12:54 125 -0.0
2019-Nov-14 12:38 132 -0.0
2019-Nov-14 12:33 132 -0.0
2019-Nov-14 12:28 132 -0.0
2019-Nov-14 12:23 132 -0.6
2019-Nov-14 12:18 132 -0.6
2019-Nov-14 12:13 132 -0.6
2019-Nov-14 12:08 132 -0.6
2019-Nov-14 12:02 132 -0.6
2019-Nov-14 11:57 132 -1.1
2019-Nov-14 11:52 132 -1.1
2019-Nov-14 11:47 132 -1.1
2019-Nov-14 11:42 132 -1.1
2019-Nov-14 11:37 132 -1.1
2019-Nov-14 11:31 132 -1.1
2019-Nov-14 11:26 132 -1.7
2019-Nov-14 11:21 132 -1.7
2019-Nov-14 11:16 132 -1.7
2019-Nov-14 11:10 132 -1.7
2019-Nov-14 11:05 132 -1.7
2019-Nov-14 11:00 132 -1.7
2019-Nov-14 10:55 132 -1.7
2019-Nov-14 10:50 132 -1.7
2019-Nov-14 10:44 132 -1.7
2019-Nov-14 10:39 133 -1.7
2019-Nov-14 10:34 133 -1.7
2019-Nov-14 10:29 124 -1.7
2019-Nov-14 10:24 110 -1.7
2019-Nov-14 10:19 096 -1.7
2019-Nov-14 10:13 096 -1.7
2019-Nov-14 10:08 091 -1.7
2019-Nov-14 10:03 108 -1.7
2019-Nov-14 09:58 112 -1.7
2019-Nov-14 09:53 098 -1.7
2019-Nov-14 09:48 106 -1.7
2019-Nov-14 09:43 111 -1.7
2019-Nov-14 09:38 110 -1.7
2019-Nov-14 09:33 131 -1.7
2019-Nov-14 09:28 130 0 gusting 6 -1.7
2019-Nov-14 09:23 108 0 gusting 6 -1.7
2019-Nov-14 09:18 104 -1.7
2019-Nov-14 09:13 099 -1.7
2019-Nov-14 09:08 092 -1.7
2019-Nov-14 09:02 093 -1.7
2019-Nov-14 08:57 118 -1.7
2019-Nov-14 08:52 121 0 gusting 6 -1.7
2019-Nov-14 08:47 109 1 gusting 6 -1.7
2019-Nov-14 08:42 119 0 gusting 6 -1.7
2019-Nov-14 08:37 121 -1.1
2019-Nov-14 08:32 118 -1.1
2019-Nov-14 08:27 115 -1.1
2019-Nov-14 08:22 114 -1.1
2019-Nov-14 08:16 110 -1.1
2019-Nov-14 08:11 110 -1.1
2019-Nov-14 08:06 102 -1.1
2019-Nov-14 08:01 101 0 gusting 6 -1.1
2019-Nov-14 07:56 112 -1.1
2019-Nov-14 07:51 111 -1.1
2019-Nov-14 07:46 109 -1.1
2019-Nov-14 07:41 115 -1.1
2019-Nov-14 07:36 115 -1.1
2019-Nov-14 07:31 113 -1.1
2019-Nov-14 07:26 107 -1.1
2019-Nov-14 07:20 116 -1.1
2019-Nov-14 07:15 107 -1.1
2019-Nov-14 07:10 100 -1.1
2019-Nov-14 07:05 108 -1.1
2019-Nov-14 07:00 109 -1.1
2019-Nov-14 06:55 108 -1.1
2019-Nov-14 06:50 108 -1.1
2019-Nov-14 06:44 111 -1.1
2019-Nov-14 06:39 109 -1.1
2019-Nov-14 06:34 105 -1.1
2019-Nov-14 06:29 108 -1.1
2019-Nov-14 06:24 112 -1.1
2019-Nov-14 06:19 112 -1.1
2019-Nov-14 06:13 112 -1.1
2019-Nov-14 06:08 108 -1.1
2019-Nov-14 06:03 107 -1.1
2019-Nov-14 05:58 108 -1.1
2019-Nov-14 05:53 078 -1.1
2019-Nov-14 05:48 078 -1.1
2019-Nov-14 05:43 078 -1.1
2019-Nov-14 05:38 087 -1.1
2019-Nov-14 05:33 086 -1.1
2019-Nov-14 05:28 085 -1.1
2019-Nov-14 05:23 084 -1.1
2019-Nov-14 05:18 079 -1.1
2019-Nov-14 05:12 074 -1.1
2019-Nov-14 05:07 072 -1.1
2019-Nov-14 05:02 057 0 gusting 6 -1.1
2019-Nov-14 04:57 091 1 gusting 6 -1.1
2019-Nov-14 04:52 093 0 gusting 4 -1.1
2019-Nov-14 04:47 081 -0.6
2019-Nov-14 04:42 080 -0.6
2019-Nov-14 04:37 078 -0.6
2019-Nov-14 04:32 061 -0.6
2019-Nov-14 04:27 035 -0.6
2019-Nov-14 04:22 035 -0.6
2019-Nov-14 04:17 058 -0.6
2019-Nov-14 04:11 053 -0.6
2019-Nov-14 04:06 044 -0.6
2019-Nov-14 04:01 044 -0.6
2019-Nov-14 03:56 056 -0.6
2019-Nov-14 03:51 057 -0.6
2019-Nov-14 03:46 058 -0.6
2019-Nov-14 03:41 059 -0.6
2019-Nov-14 03:36 058 -0.6
2019-Nov-14 03:31 059 -0.6
2019-Nov-14 03:26 052 -0.6
2019-Nov-14 03:21 053 -0.6
2019-Nov-14 03:16 052 -0.6
2019-Nov-14 03:11 053 -0.6
2019-Nov-14 03:05 040 -0.6
2019-Nov-14 03:00 052 -0.6
2019-Nov-14 02:55 039 -0.6
2019-Nov-14 02:50 019 -0.6
2019-Nov-14 02:45 032 -0.6
2019-Nov-14 02:40 035 -0.6
2019-Nov-14 02:35 035 -0.6
2019-Nov-14 02:30 033 -0.6
2019-Nov-14 02:25 015 -0.6
2019-Nov-14 02:20 354 -0.6
2019-Nov-14 02:14 354 -0.6
2019-Nov-14 02:09 035 -0.6
2019-Nov-14 02:04 331 -0.6
2019-Nov-14 01:59 325 -0.6
2019-Nov-14 01:54 325 -0.6
2019-Nov-14 01:49 344 0 gusting 5 -0.6
2019-Nov-14 01:44 331 0 gusting 3 -0.6
2019-Nov-14 01:39 344 0 gusting 5 -0.6
2019-Nov-14 01:34 -0.6
2019-Nov-14 01:29 311 0 gusting 6 -0.6
2019-Nov-14 01:24 312 -0.6
2019-Nov-14 01:19 007 -0.6
2019-Nov-14 01:14 344 -0.6
2019-Nov-14 01:08 331 -0.6
2019-Nov-14 01:03 013 -0.6
2019-Nov-14 00:58 302 0 gusting 6 -0.6
2019-Nov-14 00:53 354 0 gusting 6 -0.6
2019-Nov-14 00:48 344 -0.6
2019-Nov-14 00:43 014 -0.6
2019-Nov-14 00:38 310 -0.6
2019-Nov-14 00:33 349 0 gusting 6 -0.6
2019-Nov-14 00:28 354 0 gusting 8 -0.6
2019-Nov-14 00:23 326 0 gusting 8 -0.6
2019-Nov-14 00:18 324 2 gusting 10 -0.6
2019-Nov-14 00:13 299 3 gusting 11 -0.6
2019-Nov-14 00:08 338 3 gusting 11 -0.6
2019-Nov-14 00:03 060 2 gusting 7 -0.6
2019-Nov-13 23:58 315 1 gusting 7 -0.6
2019-Nov-13 23:53 327 0 gusting 6 -0.6
2019-Nov-13 23:48 335 0 gusting 6 -0.6
2019-Nov-13 23:43 344 0 gusting 5 -0.6
2019-Nov-13 23:38 313 1 gusting 8 -0.6
2019-Nov-13 23:33 318 1 gusting 8 -0.6
2019-Nov-13 23:28 332 1 gusting 8 -0.0
2019-Nov-13 23:23 313 1 gusting 6 -0.0
2019-Nov-13 23:18 339 1 gusting 6 -0.0
2019-Nov-13 23:13 304 1 gusting 7 -0.0
2019-Nov-13 23:08 313 1 gusting 7 -0.0
2019-Nov-13 23:03 337 1 gusting 6 -0.0
2019-Nov-13 22:58 333 1 gusting 7 -0.0
2019-Nov-13 22:53 339 1 gusting 8 -0.0
2019-Nov-13 22:48 329 1 gusting 8 -0.0
2019-Nov-13 22:43 339 1 gusting 7 -0.0
2019-Nov-13 22:33 010 0 gusting 6 -0.0
2019-Nov-13 22:28 -0.0
2019-Nov-13 22:22 335 1 gusting 6 -0.0
2019-Nov-13 22:17 297 1 gusting 7 -0.0
2019-Nov-13 22:12 333 2 gusting 8 -0.0
2019-Nov-13 22:07 332 2 gusting 8 -0.0
2019-Nov-13 22:02 335 2 gusting 10 -0.0
2019-Nov-13 21:57 331 3 gusting 10 -0.0
2019-Nov-13 21:52 344 2 gusting 9 -0.0
2019-Nov-13 21:47 320 3 gusting 9 -0.0
2019-Nov-13 21:42 344 3 gusting 9 -0.0
2019-Nov-13 21:37 344 3 gusting 12 0.6
2019-Nov-13 21:32 354 4 gusting 12 0.6
2019-Nov-13 21:27 322 4 gusting 12 0.6
2019-Nov-13 21:22 336 4 gusting 12 0.6
2019-Nov-13 21:17 320 7 gusting 14 0.6
2019-Nov-13 21:12 322 7 gusting 14 0.6
2019-Nov-13 21:07 294 6 gusting 14 0.6
2019-Nov-13 21:02 328 4 gusting 12 0.6
2019-Nov-13 20:57 320 2 gusting 9 0.6
2019-Nov-13 20:52 318 5 gusting 13 0.6
2019-Nov-13 20:47 311 6 gusting 13 0.6
2019-Nov-13 20:42 313 5 gusting 11 0.6
2019-Nov-13 20:37 306 4 gusting 11 0.6
2019-Nov-13 20:32 335 4 gusting 11 0.6
2019-Nov-13 20:27 354 6 gusting 11 0.6
2019-Nov-13 20:22 305 6 gusting 12 0.6
2019-Nov-13 20:17 336 6 gusting 13 0.6
2019-Nov-13 20:12 333 4 gusting 13 0.6
2019-Nov-13 20:07 322 5 gusting 15 0.6
2019-Nov-13 20:02 316 5 gusting 15 0.6
2019-Nov-13 19:57 002 5 gusting 15 0.6
2019-Nov-13 19:52 296 6 gusting 15 0.6
2019-Nov-13 19:47 019 6 gusting 15 0.6
2019-Nov-13 19:42 318 6 gusting 15 0.6
2019-Nov-13 19:37 349 6 gusting 15 0.6
2019-Nov-13 19:32 335 6 gusting 15 0.6
2019-Nov-13 19:27 354 6 gusting 15 0.6
2019-Nov-13 19:22 006 6 gusting 13 0.6
2019-Nov-13 19:17 330 6 gusting 13 0.6
2019-Nov-13 19:12 334 6 gusting 13 0.6
2019-Nov-13 19:07 337 6 gusting 13 0.6
2019-Nov-13 19:02 331 6 gusting 13 0.6
2019-Nov-13 18:57 304 8 gusting 14 0.6
2019-Nov-13 18:52 316 6 gusting 14 0.6
2019-Nov-13 18:47 331 3 gusting 13 1.1
2019-Nov-13 18:42 314 3 gusting 13 0.6
2019-Nov-13 18:37 358 6 gusting 14 0.6
2019-Nov-13 18:32 344 7 gusting 14 0.6
2019-Nov-13 18:27 328 6 gusting 14 0.6
2019-Nov-13 18:22 023 5 gusting 14 0.6
2019-Nov-13 18:17 023 4 gusting 13 0.6
2019-Nov-13 18:12 291 3 gusting 11 0.6
2019-Nov-13 18:07 005 6 gusting 14 -0.0
2019-Nov-13 18:01 320 6 gusting 14 -0.0
2019-Nov-13 17:56 318 7 gusting 17 -0.0
2019-Nov-13 17:52 306 10 gusting 19 -0.6
2019-Nov-13 17:46 308 11 gusting 19 -0.6
2019-Nov-13 17:41 340 7 gusting 17 -0.0
2019-Nov-13 17:36 339 7 gusting 18 -0.0
2019-Nov-13 17:31 344 7 gusting 18 -0.6
2019-Nov-13 17:26 310 9 gusting 17 -0.6
2019-Nov-13 17:21 339 10 gusting 17 -0.6
2019-Nov-13 17:16 306 8 gusting 16 -0.6
2019-Nov-13 17:11 293 6 gusting 17 -0.6
2019-Nov-13 17:06 277 8 gusting 17 -0.6
2019-Nov-13 17:01 349 8 gusting 18 -0.6
2019-Nov-13 16:56 354 6 gusting 18 -0.6
2019-Nov-13 16:51 322 6 gusting 14 -0.6
2019-Nov-13 16:46 333 7 gusting 14 -0.6
2019-Nov-13 16:41 310 7 gusting 15 -1.1
2019-Nov-13 16:36 333 6 gusting 15 -1.1
2019-Nov-13 16:31 311 7 gusting 17 -1.1
2019-Nov-13 16:26 344 9 gusting 20 -1.1
2019-Nov-13 16:21 299 11 gusting 20 -1.7
2019-Nov-13 16:16 308 9 gusting 18 -1.7
2019-Nov-13 16:11 354 9 gusting 18 -1.7
2019-Nov-13 16:06 320 9 gusting 16 -1.7
2019-Nov-13 16:01 333 10 gusting 18 -1.7
2019-Nov-13 15:56 333 11 gusting 18 -1.7
2019-Nov-13 15:51 324 11 gusting 19 -1.7
2019-Nov-13 15:46 013 9 gusting 19 -2.2
2019-Nov-13 15:41 337 8 gusting 19 -2.2
2019-Nov-13 15:36 267 8 gusting 19 -2.2
2019-Nov-13 15:31 013 7 gusting 18 -2.2
2019-Nov-13 15:26 349 9 gusting 19 -2.2
2019-Nov-13 15:21 308 10 gusting 19 -2.2
2019-Nov-13 15:16 322 10 gusting 19 -2.2
2019-Nov-13 15:11 344 9 gusting 18 -2.2
2019-Nov-13 15:06 349 11 gusting 19 -2.8
2019-Nov-13 15:01 309 11 gusting 19 -2.8
2019-Nov-13 14:56 049 10 gusting 19 -2.8
2019-Nov-13 14:51 299 10 gusting 19 -2.8
2019-Nov-13 14:46 326 10 gusting 21 -2.8
2019-Nov-13 14:41 338 11 gusting 21 -2.8
2019-Nov-13 14:36 306 11 gusting 21 -2.8
2019-Nov-13 14:31 337 11 gusting 21 -3.3
2019-Nov-13 14:26 344 11 gusting 20 -3.3
2019-Nov-13 14:21 344 12 gusting 20 -3.3
2019-Nov-13 14:16 314 11 gusting 20 -3.3
2019-Nov-13 14:11 328 11 gusting 19 -3.3
2019-Nov-13 14:06 325 11 gusting 19 -3.3
2019-Nov-13 14:01 336 12 gusting 20 -3.3
2019-Nov-13 13:56 336 12 gusting 20 -3.9
2019-Nov-13 13:51 323 12 gusting 19 -3.9
2019-Nov-13 13:46 308 11 gusting 20 -3.9
2019-Nov-13 13:41 327 10 gusting 23 -3.9
2019-Nov-13 13:36 004 10 gusting 23 -3.9
2019-Nov-13 13:31 288 9 gusting 22 -3.9
2019-Nov-13 13:26 319 12 gusting 24 -3.9
2019-Nov-13 13:21 344 13 gusting 24 -4.4
2019-Nov-13 13:16 316 13 gusting 21 -4.4
2019-Nov-13 13:11 349 12 gusting 24 -4.4
2019-Nov-13 13:06 324 11 gusting 24 -4.4
2019-Nov-13 13:01 344 10 gusting 22 -4.4
2019-Nov-13 12:56 320 8 gusting 20 -4.4
2019-Nov-13 12:51 344 8 gusting 19 -4.4
2019-Nov-13 12:46 305 10 gusting 19 -4.4
2019-Nov-13 12:41 322 11 gusting 18 -4.4
2019-Nov-13 12:36 322 11 gusting 18 -4.4
2019-Nov-13 12:31 305 10 gusting 18 -4.4
2019-Nov-13 12:25 316 9 gusting 18 -4.4
2019-Nov-13 12:21 305 9 gusting 19 -4.4
2019-Nov-13 12:16 318 10 gusting 19 -4.4
2019-Nov-13 12:10 339 11 gusting 19 -4.4
2019-Nov-13 12:05 338 9 gusting 19 -5.0
2019-Nov-13 12:00 330 8 gusting 17 -5.0
2019-Nov-13 11:55 319 10 gusting 19 -5.0
2019-Nov-13 11:50 318 10 gusting 19 -5.0
2019-Nov-13 11:45 340 9 gusting 17 -5.0
2019-Nov-13 11:40 330 10 gusting 18 -5.0
2019-Nov-13 11:35 329 10 gusting 18 -5.0
2019-Nov-13 11:30 333 7 gusting 17 -5.0
2019-Nov-13 11:25 298 8 gusting 19 -5.0
2019-Nov-13 11:20 335 10 gusting 19 -5.0
2019-Nov-13 11:15 316 9 gusting 17 -5.0
2019-Nov-13 11:10 308 9 gusting 17 -4.4
2019-Nov-13 11:05 323 8 gusting 17 -4.4
2019-Nov-13 11:00 304 8 gusting 17 -5.0
2019-Nov-13 10:55 314 7 gusting 17 -4.4
2019-Nov-13 10:50 344 6 gusting 16 -4.4
2019-Nov-13 10:45 322 6 gusting 14 -4.4
2019-Nov-13 10:40 318 8 gusting 14 -4.4
2019-Nov-13 10:35 332 9 gusting 14 -4.4
2019-Nov-13 10:30 349 8 gusting 16 -4.4
2019-Nov-13 10:25 325 5 gusting 16 -4.4
2019-Nov-13 10:20 323 5 gusting 13 -4.4
2019-Nov-13 10:15 279 7 gusting 16 -4.4
2019-Nov-13 10:10 325 8 gusting 16 -4.4
2019-Nov-13 10:05 313 6 gusting 16 -4.4
2019-Nov-13 10:00 339 9 gusting 16 -4.4
2019-Nov-13 09:55 324 9 gusting 16 -4.4
2019-Nov-13 09:50 336 7 gusting 14 -4.4
2019-Nov-13 09:45 314 8 gusting 15 -4.4
2019-Nov-13 09:40 305 8 gusting 17 -4.4
2019-Nov-13 09:35 312 9 gusting 17 -4.4
2019-Nov-13 09:30 327 8 gusting 15 -4.4
2019-Nov-13 09:25 344 8 gusting 15 -4.4
2019-Nov-13 09:20 337 8 gusting 15 -4.4
2019-Nov-13 09:15 321 7 gusting 15 -4.4
2019-Nov-13 09:10 322 9 gusting 19 -4.4
2019-Nov-13 09:05 298 8 gusting 19 -4.4
2019-Nov-13 09:00 338 7 gusting 17 -4.4
2019-Nov-13 08:55 295 8 gusting 16 -4.4
2019-Nov-13 08:50 321 9 gusting 19 -4.4
2019-Nov-13 08:45 287 9 gusting 19 -4.4
2019-Nov-13 08:40 354 10 gusting 16 -4.4
2019-Nov-13 08:35 314 12 gusting 19 -4.4
2019-Nov-13 08:30 337 12 gusting 19 -4.4
2019-Nov-13 08:25 312 11 gusting 19 -4.4
2019-Nov-13 08:20 344 11 gusting 19 -4.4
2019-Nov-13 08:15 316 8 gusting 18 -4.4
2019-Nov-13 08:10 314 7 gusting 14 -4.4
2019-Nov-13 08:05 344 8 gusting 16 -4.4
2019-Nov-13 08:00 322 10 gusting 16 -4.4
2019-Nov-13 07:55 337 10 gusting 18 -4.4
2019-Nov-13 07:50 323 10 gusting 18 -4.4
2019-Nov-13 07:45 340 10 gusting 19 -4.4
2019-Nov-13 07:40 291 10 gusting 19 -4.4
2019-Nov-13 07:35 293 9 gusting 16 -4.4
2019-Nov-13 07:30 303 6 gusting 14 -4.4
2019-Nov-13 07:25 326 5 gusting 14 -3.9
2019-Nov-13 07:20 354 7 gusting 16 -4.4
2019-Nov-13 07:15 320 10 gusting 20 -4.4
2019-Nov-13 07:10 339 11 gusting 20 -4.4
2019-Nov-13 07:05 331 11 gusting 20 -4.4
2019-Nov-13 07:00 325 10 gusting 19 -4.4